Station: Mount Hope  

  Atmospheric Gas Attenuation - ITU Rec 676-11   ----------------- dB/100km -----------------
Date Time Temp RH % AH g/m3 Dew Point Wind Direction Speed kph Gust kph Barometer mB Rainfall Since 9am 24GHz 47GHz 76GHz 122GHz 134GHz 241GHz
08/05 12:30 13.5 66 7.72 7.3 1013.1 0 17.7 24.6 36.5 95.5 87.3 299.5
08/05 12:20 13.5 64 7.49 6.8 1013.1 0 17.2 24.2 35.6 93.1 84.3 289.2
08/05 12:10 13.6 65 7.65 7.3 1013.1 0 17.6 24.4 36.1 94.7 86.3 296.0
08/05 12:00 13.2 66 7.58 7 1013.1 0 17.4 24.4 36.0 94.4 85.8 294.4
08/05 11:50 13.2 69 7.92 7.6 1013.1 0 18.2 25.0 37.4 98.0 90.2 309.7
08/05 11:40 12.7 69 7.68 7.1 1013.1 0 17.7 24.7 36.7 96.1 87.7 300.8
08/05 11:30 12.8 69 7.73 7.3 1013.1 0 17.8 24.8 36.8 96.5 88.2 302.7
08/05 11:20 12.4 69 7.54 7 1013.1 0 17.4 24.6 36.2 95.0 86.2 295.5
08/05 11:10 12.1 72 7.72 7.2 1013.1 0 17.8 25.0 37.1 97.2 88.9 304.9
08/05 11:00 11.5 74 7.64 7 1013.1 0 17.6 25.0 37.1 97.1 88.5 303.5
08/05 10:50 11.1 76 7.66 7 1013.1 0 17.7 25.1 37.3 97.8 89.2 306.0
08/05 10:40 11.1 77 7.76 7.2 1013.1 0 17.9 25.3 37.7 98.9 90.5 310.7
08/05 10:30 10.9 78 7.76 7.2 1013.1 0 17.9 25.4 37.8 99.2 90.8 311.4
08/05 10:20 10.8 77 7.61 6.9 1013.1 0 17.6 25.1 37.3 97.7 88.9 304.9
08/05 10:10 10.8 76 7.51 6.7 1013.1 0 17.4 25.0 36.9 96.6 87.6 300.2
08/05 10:00 11.4 74 7.6 6.9 1013.1 0 17.6 25.0 36.9 96.8 88.1 302.1
08/05 09:50 11.2 75 7.6 6.9 1013.1 0 17.6 25.0 37.0 97.1 88.3 302.8
08/05 09:40 10.9 76 7.56 6.8 1013.1 0 17.5 25.0 37.0 97.0 88.1 302.1
08/05 09:30 11 74 7.41 6.6 1013.1 0 17.2 24.8 36.4 95.3 86.0 294.8
08/05 09:20 11 73 7.31 6.3 1013.1 0 17.0 24.6 36.0 94.2 84.7 290.3
08/05 09:10 10.9 73 7.26 6.2 1013.1 0 16.9 24.6 35.8 93.8 84.2 288.3
08/05 09:00 11.1 73 7.35 6.5 1013.1 0 17.0 24.6 36.1 94.5 85.1 291.7
08/05 08:50 11 72 7.21 6.1 1013.1 0 16.7 24.4 35.6 93.2 83.4 285.7
08/05 08:40 10.8 73 7.22 6.1 1013.1 0 16.8 24.5 35.7 93.5 83.8 286.9
08/05 08:30 10.3 74 7.09 5.9 1013.1 0 16.5 24.4 35.4 92.7 82.6 282.7
08/05 08:20 9.3 75 6.74 5.1 1013.1 0 15.8 24.2 34.5 90.2 79.1 270.2
08/05 08:10 8.4 76 6.45 4.4 1013.1 0 15.2 23.9 33.7 88.1 76.2 259.9
08/05 08:00 7.5 77 6.17 3.7 1013.1 0 14.7 23.7 33.0 86.1 73.4 250.0
08/05 07:50 7 78 6.05 3.4 1013.1 0 14.4 23.7 32.7 85.4 72.3 246.0
08/05 07:40 6.5 78 5.85 2.9 1013.1 0 14.0 23.5 32.1 83.8 70.1 238.3
08/05 07:30 6.2 78 5.74 2.7 1013.1 0 13.8 23.4 31.8 83.0 68.9 234.2
08/05 07:20 6 78 5.66 2.4 1013.1 0 13.6 23.3 31.5 82.3 68.1 231.1
08/05 07:10 5.8 76 5.45 2 1013.1 0 13.2 23.0 30.8 80.3 65.5 222.1
08/05 07:00 5.6 78 5.52 2.1 1013.1 0 13.3 23.2 31.1 81.3 66.6 225.8
08/05 06:50 5.5 77 5.41 1.9 1013.1 0 13.1 23.0 30.8 80.2 65.2 221.1
08/05 06:40 5.3 77 5.34 1.7 1013.1 0 12.9 23.0 30.6 79.7 64.5 218.4
08/05 06:30 5.3 77 5.34 1.6 1013.1 0 12.9 23.0 30.6 79.7 64.5 218.4
08/05 06:20 5.3 77 5.34 1.7 1013.1 0 12.9 23.0 30.6 79.7 64.5 218.4
08/05 06:10 5.2 77 5.31 1.6 1013.1 0 12.9 22.9 30.5 79.5 64.2 217.3
08/05 06:00 5 79 5.37 1.7 1013.1 0 13.0 23.1 30.8 80.3 65.1 220.7
08/05 05:50 4.6 81 5.36 1.6 1013.1 0 13.0 23.2 30.9 80.6 65.3 221.3
08/05 05:40 4.1 82 5.25 1.4 1013.1 0 12.8 23.1 30.7 79.9 64.3 217.6
08/05 05:30 3.4 83 5.07 0.8 1013.1 0 12.4 23.0 30.2 78.7 62.5 211.2
08/05 05:20 3.5 81 4.98 0.5 1013.1 0 12.2 22.9 29.8 77.7 61.2 206.8
08/05 05:10 3.8 81 5.09 0.8 1013.1 0 12.5 23.0 30.1 78.5 62.4 211.0
08/05 05:00 3.8 80 5.02 0.7 1013.1 0 12.3 22.8 29.9 77.8 61.5 207.8
08/05 04:50 3.9 80 5.06 0.7 1013.1 0 12.4 22.9 30.0 78.1 62.0 209.4
08/05 04:40 3.7 79 4.93 0.4 1013.1 0 12.1 22.7 29.5 76.9 60.4 203.9
08/05 04:30 3.8 78 4.9 0.3 1013.1 0 12.1 22.7 29.4 76.5 59.9 202.3
08/05 04:20 4.2 77 4.97 0.5 1013.1 0 12.2 22.7 29.5 76.9 60.5 204.5
08/05 04:10 4.3 77 5 0.6 1013.1 0 12.3 22.7 29.6 77.1 60.9 205.6
08/05 04:00 4.4 77 5.03 0.7 1013.1 0 12.3 22.7 29.7 77.3 61.2 206.7
08/05 03:50 4.3 77 5 0.6 1013.1 0 12.3 22.7 29.6 77.1 60.9 205.6
08/05 03:40 4.4 78 5.1 0.9 1013.1 0 12.5 22.8 29.9 78.0 62.1 209.9
08/05 03:30 4.3 79 5.13 1 1013.1 0 12.5 22.9 30.1 78.5 62.6 211.5
08/05 03:20 3.7 79 4.93 0.5 1013.1 0 12.1 22.7 29.5 76.9 60.4 203.9
08/05 03:10 3.5 78 4.8 0 1013.1 0 11.8 22.6 29.1 75.8 58.9 198.5
08/05 03:00 3.9 77 4.87 0.2 1013.1 0 12.0 22.6 29.2 76.1 59.5 200.7
08/05 02:50 4.1 76 4.87 0.2 1013.1 0 12.0 22.5 29.2 75.9 59.3 200.2
08/05 02:40 4.3 75 4.87 0.2 1013.1 0 12.0 22.5 29.1 75.7 59.2 199.7
08/05 02:30 4.6 75 4.97 0.6 1013.1 0 12.2 22.6 29.4 76.5 60.2 203.5
08/05 02:20 4.7 76 5.07 0.8 1013.1 0 12.4 22.7 29.7 77.4 61.5 207.7
08/05 02:10 4.5 78 5.13 1 1013.1 0 12.5 22.8 30.0 78.3 62.4 211.0
08/05 02:00 4 82 5.22 1.2 1013.1 0 12.7 23.1 30.6 79.7 64.0 216.5
08/05 01:50 2.8 86 5.05 0.7 1013.1 0 12.4 23.1 30.3 79.1 62.7 211.9
08/05 01:40 2.1 87 4.87 0.1 1013.1 0 12.0 23.0 29.9 77.9 60.9 205.3
08/05 01:30 1.6 86 4.66 -0.5 1013.1 0 11.6 22.8 29.2 76.1 58.5 196.8
08/05 01:20 1.7 84 4.58 -0.7 1013.1 0 11.4 22.7 28.9 75.2 57.3 192.8
08/05 01:10 1.9 84 4.64 -0.5 1013.1 0 11.6 22.7 29.0 75.6 58.0 195.1
08/05 01:00 2 83 4.62 -0.6 1013.1 0 11.5 22.7 28.9 75.3 57.6 193.9
08/05 00:50 2.1 80 4.48 -0.9 1013.1 0 11.2 22.4 28.3 73.7 55.7 187.2
08/05 00:40 2.3 80 4.54 -0.8 1013.1 0 11.3 22.5 28.5 74.2 56.4 189.5
08/05 00:20 2.9 76 4.49 -0.9 1013.1 0 11.2 22.2 28.1 73.1 55.3 185.8
08/05 00:10 3.2 75 4.52 -0.8 1013.1 0 11.3 22.2 28.1 73.1 55.5 186.5
08/05 00:00 3.6 73 4.52 -0.8 1013.1 0 11.2 22.1 28.0 72.7 55.2 185.5
07/05 23:50 4.2 70 4.51 -0.8 1013.1 0 11.2 21.9 27.7 72.1 54.6 183.7
07/05 23:40 4.8 69 4.63 -0.4 1013.1 0 11.4 22.0 28.0 72.8 55.7 187.7
07/05 23:30 5.3 67 4.65 -0.3 1013.1 0 11.5 21.9 27.9 72.5 55.6 187.4
07/05 23:20 5.5 66 4.64 -0.4 1013.1 0 11.4 21.8 27.8 72.2 55.4 186.5
07/05 23:10 5.6 65 4.6 -0.5 1013.1 0 11.4 21.7 27.6 71.7 54.8 184.5
07/05 23:00 5.9 64 4.62 -0.4 1013.1 0 11.4 21.7 27.6 71.7 54.8 184.6
07/05 22:50 6 63 4.58 -0.5 1013.1 0 11.3 21.6 27.4 71.2 54.3 182.7
07/05 22:40 6.1 61 4.46 -0.9 1013.1 0 11.0 21.4 26.9 69.9 52.7 177.2
07/05 22:30 6.4 60 4.47 -0.8 1013.1 0 11.0 21.4 26.8 69.7 52.6 177.0
07/05 22:20 6.7 58 4.41 -1 1013.1 0 10.9 21.2 26.5 68.9 51.7 173.7
07/05 22:10 7.2 58 4.56 -0.5 1013.1 0 11.2 21.3 26.9 69.9 53.2 179.1
07/05 22:00 7.3 58 4.58 -0.4 1013.1 0 11.3 21.3 26.9 70.0 53.4 179.7
07/05 21:50 7.3 57 4.51 -0.7 1013.1 0 11.1 21.2 26.7 69.3 52.5 176.7
07/05 21:40 7.4 56 4.46 -0.8 1013.1 0 11.0 21.1 26.5 68.7 51.8 174.4
07/05 21:30 7.5 56 4.48 -0.7 1013.1 0 11.0 21.1 26.5 68.9 52.0 175.0
07/05 21:20 7.7 55 4.46 -0.8 1013.1 0 11.0 21.0 26.4 68.5 51.7 173.7
07/05 21:10 7.8 53 4.33 -1 1013.1 0 10.7 20.8 25.9 67.1 50.0 168.0
07/05 21:00 8.1 53 4.41 -0.9 1013.1 0 10.9 20.9 26.1 67.7 50.8 170.7
07/05 20:50 8.4 52 4.41 -0.9 1013.1 0 10.9 20.8 26.0 67.4 50.6 170.1
07/05 20:40 8.6 52 4.47 -0.7 1013.1 0 11.0 20.8 26.1 67.8 51.2 172.2
07/05 20:30 8.9 51 4.47 -0.7 1013.1 0 11.0 20.8 26.0 67.6 51.0 171.6
07/05 20:20 8.7 50 4.33 -1.2 1013.1 0 10.7 20.6 25.6 66.4 49.5 166.1
07/05 20:10 8.8 50 4.35 -1.1 1013.1 0 10.7 20.6 25.6 66.5 49.6 166.7
07/05 20:00 9.1 48 4.26 -1.3 1013.1 0 10.5 20.4 25.2 65.4 48.4 162.4
07/05 19:50 9.7 48 4.43 -0.8 1013.1 0 10.9 20.5 25.6 66.5 50.0 168.2

Last Refresh: 08-May-2026 12:09:22

Bureau of Meteorology